Time;durP1;ratioP1;P1;durP2;ratioP2;P2;SDS_P1;SDS_P2;PMS_P1;PMS_P2;Temp;Humidity;BMP_temperature;BMP_pressure;BME280_temperature;BME280_humidity;BME280_pressure;Samples;Min_cycle;Max_cycle;Signal;HPM_P1;HPM_P2
2022/06/29 00:01:27;;;;;;;31.90;16.50;;;;;;;22.77;63.16;99365.65;25042;1315;3049073;-60
2022/06/29 00:03:56;;;;;;;28.90;17.60;;;;;;;22.73;63.42;99369.48;25123;1315;3026561;-63
2022/06/29 00:06:25;;;;;;;28.20;17.30;;;;;;;22.74;63.13;99372.13;25030;1315;3067870;-63
2022/06/29 00:08:55;;;;;;;24.40;14.00;;;;;;;22.70;63.93;99370.17;25061;1313;3028347;-62
2022/06/29 00:11:24;;;;;;;27.80;15.00;;;;;;;23.25;62.95;99371.86;25115;1315;3028891;-61
2022/06/29 00:13:53;;;;;;;26.30;14.60;;;;;;;23.77;61.54;99372.85;25024;1315;3070346;-60
2022/06/29 00:16:22;;;;;;;25.20;15.90;;;;;;;23.82;61.01;99365.77;25107;1314;3026574;-60
2022/06/29 00:18:51;;;;;;;25.40;15.00;;;;;;;23.71;61.28;99367.20;25056;1313;3026540;-61
2022/06/29 00:21:20;;;;;;;27.40;17.10;;;;;;;23.59;61.42;99366.64;25098;1316;3071302;-62
2022/06/29 00:23:49;;;;;;;29.00;16.70;;;;;;;23.46;61.86;99371.23;25044;1313;3026425;-59
2022/06/29 00:26:18;;;;;;;21.20;14.80;;;;;;;23.31;62.54;99367.76;25084;1315;3052559;-60
2022/06/29 00:28:49;;;;;;;22.90;15.60;;;;;;;23.22;62.70;99370.96;24976;1315;3026677;-61
2022/06/29 00:31:18;;;;;;;24.60;15.60;;;;;;;23.13;62.44;99374.65;25079;1315;3026830;-61
2022/06/29 00:33:47;;;;;;;24.00;15.50;;;;;;;23.05;63.13;99375.43;25030;1315;3053085;-59
2022/06/29 00:36:16;;;;;;;24.60;15.00;;;;;;;22.98;63.54;99377.07;25124;1315;3026531;-61
2022/06/29 00:38:45;;;;;;;21.10;11.80;;;;;;;22.94;63.90;99378.06;25035;1315;3055244;-60
2022/06/29 00:41:14;;;;;;;22.60;12.60;;;;;;;23.44;63.21;99381.20;25127;1315;3026585;-60
2022/06/29 00:43:43;;;;;;;19.90;13.00;;;;;;;23.97;61.70;99383.30;25045;1315;3051999;-61
2022/06/29 00:46:12;;;;;;;23.30;14.00;;;;;;;24.05;61.29;99384.45;25116;1315;3026881;-61
2022/06/29 00:48:41;;;;;;;25.60;16.10;;;;;;;23.87;61.59;99386.25;25054;1315;3058660;-60
2022/06/29 00:51:11;;;;;;;26.40;17.00;;;;;;;23.69;61.81;99381.58;25101;1315;3026449;-60
2022/06/29 00:53:41;;;;;;;34.70;18.70;;;;;;;23.48;62.64;99385.33;25090;1316;3054614;-61
2022/06/29 00:56:10;;;;;;;35.10;21.40;;;;;;;23.27;63.15;99385.20;25089;1315;3029251;-60
2022/06/29 00:58:42;;;;;;;34.50;20.50;;;;;;;23.10;63.76;99389.14;25060;1315;3027065;-60
2022/06/29 01:01:11;;;;;;;38.40;22.20;;;;;;;22.91;64.57;99386.91;25017;1315;3026976;-60
2022/06/29 01:03:40;;;;;;;38.00;23.00;;;;;;;22.73;65.46;99387.05;25103;1315;3026661;-60
2022/06/29 01:06:09;;;;;;;25.50;16.20;;;;;;;22.71;65.42;99385.36;24982;1316;3050938;-60
2022/06/29 01:08:40;;;;;;;24.10;16.30;;;;;;;23.27;64.47;99382.30;25070;1315;3026337;-61
2022/06/29 01:11:09;;;;;;;26.90;16.30;;;;;;;23.72;63.06;99379.30;25060;1315;3056869;-60
2022/06/29 01:13:43;;;;;;;22.50;16.60;;;;;;;23.72;63.08;99377.98;25063;1315;3026339;-59
2022/06/29 01:16:12;;;;;;;27.00;15.80;;;;;;;23.60;63.44;99374.73;25078;1315;3053002;-60
2022/06/29 01:18:41;;;;;;;22.40;15.30;;;;;;;23.43;63.95;99381.47;25093;1315;3026671;-62
2022/06/29 01:21:11;;;;;;;28.00;15.00;;;;;;;23.27;64.48;99383.60;25090;1314;3051666;-60
2022/06/29 01:23:40;;;;;;;20.10;14.50;;;;;;;23.15;64.76;99387.64;25107;1315;3026520;-61
2022/06/29 01:26:11;;;;;;;20.90;13.30;;;;;;;23.06;65.15;99383.48;24997;1315;3026570;-61
2022/06/29 01:28:46;;;;;;;23.70;13.70;;;;;;;22.95;65.70;99378.30;25105;1315;3052163;-60
2022/06/29 01:31:16;;;;;;;17.50;10.90;;;;;;;22.87;66.18;99383.33;25052;1315;3054091;-59
2022/06/29 01:33:46;;;;;;;21.30;11.40;;;;;;;23.50;64.71;99382.14;25065;1314;3026987;-61
2022/06/29 01:36:16;;;;;;;16.90;11.90;;;;;;;24.03;63.24;99378.78;25049;1315;3026786;-61
2022/06/29 01:38:45;;;;;;;14.60;11.60;;;;;;;24.01;62.91;99384.84;25050;1315;3027481;-61
2022/06/29 01:41:14;;;;;;;17.20;10.60;;;;;;;23.81;63.30;99389.15;25090;1317;3026731;-62
2022/06/29 01:43:43;;;;;;;15.80;11.70;;;;;;;23.61;63.86;99385.80;25060;1315;3071251;-60
2022/06/29 01:46:12;;;;;;;14.40;11.20;;;;;;;23.42;64.47;99387.81;25087;1315;3026199;-60
2022/06/29 01:48:41;;;;;;;16.40;12.10;;;;;;;23.23;65.12;99387.27;25076;1316;3053260;-62
2022/06/29 01:51:10;;;;;;;14.80;11.40;;;;;;;23.13;65.00;99392.84;25092;1315;3027065;-60
2022/06/29 01:53:39;;;;;;;17.80;11.90;;;;;;;23.01;65.55;99391.15;25055;1315;3055162;-60
2022/06/29 01:56:08;;;;;;;16.10;7.80;;;;;;;22.94;65.88;99390.89;25109;1314;3026828;-61
2022/06/29 01:58:38;;;;;;;12.40;9.50;;;;;;;23.49;64.76;99393.71;25089;1315;3049736;-61
2022/06/29 02:01:07;;;;;;;15.20;9.30;;;;;;;24.02;63.23;99389.59;25043;1315;3026383;-61
2022/06/29 02:03:37;;;;;;;12.60;9.60;;;;;;;24.11;62.68;99382.97;25083;1315;3058959;-59
2022/06/29 02:06:06;;;;;;;17.50;9.90;;;;;;;23.96;62.84;99383.27;25082;1315;3028944;-61
2022/06/29 02:08:35;;;;;;;17.40;10.70;;;;;;;23.75;63.29;99384.67;25051;1316;3054955;-60
2022/06/29 02:11:04;;;;;;;18.70;10.30;;;;;;;23.56;63.70;99377.56;25073;1315;3026620;-61
2022/06/29 02:13:33;;;;;;;13.10;11.10;;;;;;;23.41;64.35;99382.40;25038;1315;3051713;-61
2022/06/29 02:16:02;;;;;;;16.50;11.00;;;;;;;23.28;64.83;99377.65;25132;1313;3026648;-61
2022/06/29 02:18:31;;;;;;;13.60;10.90;;;;;;;23.16;65.11;99380.75;25061;1315;3050841;-61
2022/06/29 02:21:00;;;;;;;14.70;10.90;;;;;;;23.09;65.38;99382.61;25100;1315;3026864;-59
2022/06/29 02:23:29;;;;;;;12.50;8.50;;;;;;;22.98;65.96;99383.54;25052;1318;3070325;-61
2022/06/29 02:25:58;;;;;;;13.60;9.00;;;;;;;23.53;64.85;99384.00;25093;1315;3026926;-60
2022/06/29 02:28:28;;;;;;;14.40;9.10;;;;;;;24.10;63.16;99378.65;25073;1318;3052375;-62
2022/06/29 02:36:35;;;;;;;15.10;10.50;;;;;;;23.91;62.76;99385.29;25084;1316;3054638;-61
2022/06/29 02:39:04;;;;;;;14.70;10.10;;;;;;;23.72;63.19;99383.39;25092;1318;3026576;-61
2022/06/29 02:41:34;;;;;;;23.50;11.70;;;;;;;23.59;63.56;99384.90;25075;1315;3051595;-60
2022/06/29 02:44:03;;;;;;;18.10;11.70;;;;;;;23.40;64.43;99384.98;25058;1315;3026467;-59
2022/06/29 02:46:33;;;;;;;19.40;11.60;;;;;;;23.30;64.64;99391.68;25082;1315;3026421;-58
2022/06/29 02:49:02;;;;;;;13.80;11.10;;;;;;;23.27;64.43;99393.81;25085;1315;3026518;-59
2022/06/29 02:51:31;;;;;;;11.30;8.10;;;;;;;23.21;65.18;99394.48;25024;1315;3026540;-60
2022/06/29 02:54:00;;;;;;;13.40;9.20;;;;;;;23.74;63.87;99394.95;25063;1315;3054821;-60
2022/06/29 02:56:30;;;;;;;16.20;10.10;;;;;;;24.25;62.31;99392.79;25064;1318;3026778;-59
2022/06/29 02:58:59;;;;;;;18.10;9.90;;;;;;;24.38;61.69;99391.45;25026;1315;3026354;-61
2022/06/29 03:01:28;;;;;;;18.20;11.10;;;;;;;24.23;61.60;99395.45;25118;1315;3026557;-60
2022/06/29 03:03:57;;;;;;;15.80;10.70;;;;;;;24.09;61.95;99396.93;25050;1319;3058679;-60
2022/06/29 03:06:26;;;;;;;18.80;11.20;;;;;;;23.94;62.42;99397.16;25120;1315;3026732;-61
2022/06/29 03:08:55;;;;;;;21.30;11.80;;;;;;;23.82;62.52;99393.70;25033;1315;3054856;-59
2022/06/29 03:11:24;;;;;;;16.60;11.50;;;;;;;23.68;63.00;99393.67;25109;1315;3026285;-60
2022/06/29 03:13:54;;;;;;;13.80;10.60;;;;;;;23.59;63.33;99396.33;25039;1315;3054154;-61
2022/06/29 03:16:23;;;;;;;16.60;11.60;;;;;;;23.55;63.09;99396.60;25049;1315;3026755;-60
2022/06/29 03:18:53;;;;;;;21.10;11.80;;;;;;;23.52;63.02;99398.09;25020;1315;3026583;-60
2022/06/29 03:21:22;;;;;;;22.50;12.20;;;;;;;23.47;63.52;99401.63;25090;1318;3026806;-61
2022/06/29 03:23:52;;;;;;;13.70;11.90;;;;;;;23.46;63.21;99403.42;25060;1315;3026807;-60
2022/06/29 03:26:22;;;;;;;18.50;11.60;;;;;;;23.43;63.31;99400.34;25047;1315;3056408;-62
2022/06/29 03:28:52;;;;;;;19.30;11.50;;;;;;;23.37;63.76;99400.69;25046;1315;3027347;-60
2022/06/29 03:31:22;;;;;;;16.70;8.80;;;;;;;23.39;63.66;99402.45;25063;1318;3055306;-61
2022/06/29 03:33:51;;;;;;;14.10;10.10;;;;;;;23.94;62.44;99403.44;25063;1315;3026725;-61
2022/06/29 03:36:20;;;;;;;13.60;10.40;;;;;;;24.40;61.01;99394.88;25071;1316;3026441;-60
2022/06/29 03:38:49;;;;;;;14.00;10.80;;;;;;;24.55;60.26;99390.93;25043;1315;3054476;-61
2022/06/29 03:41:18;;;;;;;19.30;11.40;;;;;;;24.51;60.09;99396.49;25084;1315;3026238;-61
2022/06/29 03:43:47;;;;;;;19.80;11.70;;;;;;;24.44;60.24;99395.10;25081;1314;3054151;-60
2022/06/29 03:46:16;;;;;;;19.90;12.50;;;;;;;24.29;60.74;99391.61;25087;1315;3026243;-60
2022/06/29 03:48:46;;;;;;;17.60;12.40;;;;;;;24.14;61.07;99395.11;25106;1315;3049024;-59
2022/06/29 03:51:15;;;;;;;17.70;12.70;;;;;;;24.12;60.94;99396.41;25056;1315;3026806;-61
2022/06/29 03:53:44;;;;;;;20.70;12.20;;;;;;;24.08;61.08;99401.25;25077;1315;3070675;-61
2022/06/29 03:56:13;;;;;;;18.30;12.50;;;;;;;24.03;61.16;99400.42;25035;1315;3026691;-60
2022/06/29 03:58:42;;;;;;;23.20;13.40;;;;;;;23.98;61.52;99404.68;25087;1315;3054762;-60
2022/06/29 04:01:11;;;;;;;20.70;14.60;;;;;;;23.96;61.56;99396.52;25042;1315;3026299;-62
2022/06/29 04:03:40;;;;;;;21.50;12.70;;;;;;;23.96;61.44;99401.34;25083;1315;3026261;-60
2022/06/29 04:06:11;;;;;;;16.10;12.00;;;;;;;23.93;61.56;99407.79;25067;1316;3054104;-60
2022/06/29 04:08:41;;;;;;;18.80;13.20;;;;;;;23.93;61.68;99410.13;25046;1315;3026307;-60
2022/06/29 04:13:58;;;;;;;20.60;12.70;;;;;;;23.95;61.76;99413.06;25091;1318;3054373;-61
2022/06/29 04:16:27;;;;;;;18.70;12.60;;;;;;;24.01;61.20;99417.24;25016;1315;3026590;-62
2022/06/29 04:18:56;;;;;;;20.50;12.60;;;;;;;23.97;61.43;99425.17;25086;1315;3054946;-62
2022/06/29 04:21:26;;;;;;;17.70;12.30;;;;;;;24.00;61.21;99428.95;25063;1315;3026489;-60
2022/06/29 04:23:55;;;;;;;24.50;13.10;;;;;;;24.00;61.29;99430.89;25029;1316;3051454;-61
2022/06/29 04:26:24;;;;;;;20.00;12.80;;;;;;;24.02;61.15;99430.88;25090;1315;3026905;-60
2022/06/29 04:28:55;;;;;;;19.00;13.00;;;;;;;24.01;61.36;99435.71;25064;1315;3026835;-63
2022/06/29 04:31:24;;;;;;;20.40;12.20;;;;;;;24.05;61.11;99435.77;25065;1315;3026887;-62
2022/06/29 04:33:53;;;;;;;18.60;12.80;;;;;;;24.06;60.92;99438.67;25063;1315;3026180;-63
2022/06/29 04:36:22;;;;;;;22.30;12.10;;;;;;;24.11;60.59;99439.46;25108;1315;3053453;-60
2022/06/29 04:38:53;;;;;;;20.10;12.10;;;;;;;24.14;60.68;99442.71;25028;1315;3026860;-60
2022/06/29 04:41:22;;;;;;;19.20;12.70;;;;;;;24.20;60.32;99441.85;25126;1315;3054347;-61
2022/06/29 04:43:51;;;;;;;17.50;13.00;;;;;;;24.20;60.35;99443.23;25027;1315;3026362;-61
2022/06/29 04:46:21;;;;;;;16.90;11.50;;;;;;;24.23;60.40;99445.29;25088;1315;3026336;-61
2022/06/29 04:48:53;;;;;;;20.90;12.10;;;;;;;24.27;60.26;99444.60;25068;1315;3054961;-60
2022/06/29 04:51:23;;;;;;;20.70;12.90;;;;;;;24.32;60.09;99444.42;25110;1315;3027633;-61
2022/06/29 04:53:54;;;;;;;19.20;11.80;;;;;;;24.35;60.32;99443.83;25034;1315;3026423;-62
2022/06/29 04:56:31;;;;;;;20.40;12.10;;;;;;;24.41;60.17;99443.84;25045;1315;3026567;-61
2022/06/29 04:59:00;;;;;;;19.90;11.80;;;;;;;24.48;59.90;99453.05;25110;1315;3052113;-61
2022/06/29 05:01:30;;;;;;;19.10;12.50;;;;;;;24.57;59.23;99449.94;25046;1315;3026390;-60
2022/06/29 05:03:59;;;;;;;16.20;11.80;;;;;;;24.62;59.12;99447.96;25034;1315;3027311;-60
2022/06/29 05:06:28;;;;;;;24.80;12.60;;;;;;;24.64;59.11;99447.74;25077;1315;3026713;-61
2022/06/29 05:08:57;;;;;;;22.00;12.90;;;;;;;24.66;59.30;99451.98;25033;1316;3054225;-62
2022/06/29 05:11:28;;;;;;;18.60;12.80;;;;;;;24.70;59.39;99457.92;25093;1313;3026759;-60
2022/06/29 05:13:57;;;;;;;16.90;12.60;;;;;;;24.76;59.09;99455.02;25059;1315;3054981;-62
2022/06/29 05:16:27;;;;;;;19.50;12.60;;;;;;;24.83;58.53;99455.29;25097;1315;3026427;-61
2022/06/29 05:18:56;;;;;;;22.50;12.20;;;;;;;24.90;58.40;99454.80;25183;1315;3026925;-62
2022/06/29 05:21:26;;;;;;;19.60;12.70;;;;;;;24.95;58.37;99458.46;25099;1316;3026383;-62
2022/06/29 05:23:57;;;;;;;19.70;13.20;;;;;;;25.01;58.38;99456.52;25172;1316;3027719;-63
2022/06/29 05:26:26;;;;;;;17.70;12.10;;;;;;;25.04;58.49;99459.55;25177;1315;3026806;-62
2022/06/29 05:28:55;;;;;;;18.60;12.50;;;;;;;25.12;58.41;99458.92;25064;1313;3026763;-61
2022/06/29 05:31:29;;;;;;;15.40;12.00;;;;;;;25.18;58.34;99461.84;25110;1313;3054952;-61
2022/06/29 05:33:58;;;;;;;20.70;13.00;;;;;;;25.28;58.01;99463.41;25107;1315;3051150;-61
2022/06/29 05:36:27;;;;;;;23.10;14.00;;;;;;;25.29;57.99;99463.64;25057;1313;3026595;-62
2022/06/29 05:38:56;;;;;;;17.00;13.10;;;;;;;25.33;58.24;99462.55;25114;1315;3054975;-61
2022/06/29 05:41:26;;;;;;;18.90;12.60;;;;;;;25.39;58.12;99458.55;25069;1315;3026711;-62
2022/06/29 05:43:55;;;;;;;21.90;14.20;;;;;;;25.37;58.33;99455.92;25061;1315;3048997;-60
2022/06/29 05:46:24;;;;;;;22.30;14.20;;;;;;;25.43;58.31;99453.96;25082;1315;3026839;-60
2022/06/29 05:48:53;;;;;;;20.70;13.20;;;;;;;25.55;58.06;99454.13;25056;1313;3026573;-62
2022/06/29 05:51:22;;;;;;;18.90;13.10;;;;;;;25.64;57.68;99451.61;25114;1315;3047774;-60
2022/06/29 05:53:51;;;;;;;20.20;12.80;;;;;;;25.70;57.61;99450.27;25071;1313;3026571;-60
2022/06/29 05:56:22;;;;;;;32.10;13.50;;;;;;;25.76;57.72;99448.54;25113;1315;3056066;-61
2022/06/29 05:58:51;;;;;;;23.80;12.80;;;;;;;25.86;57.74;99447.59;25086;1313;3027948;-61
2022/06/29 06:01:20;;;;;;;23.20;13.00;;;;;;;25.93;57.39;99448.11;25115;1313;3026589;-61
2022/06/29 06:03:50;;;;;;;21.90;13.60;;;;;;;26.00;56.45;99445.81;25094;1313;3058478;-61
2022/06/29 06:06:19;;;;;;;22.00;12.90;;;;;;;26.04;56.25;99449.73;25077;1315;3026232;-62
2022/06/29 06:08:48;;;;;;;18.10;13.00;;;;;;;26.06;56.16;99447.88;25128;1315;3055222;-60
2022/06/29 06:11:17;;;;;;;17.30;12.60;;;;;;;26.16;55.87;99456.98;25067;1313;3026617;-61
2022/06/29 06:13:46;;;;;;;20.00;12.70;;;;;;;26.29;55.49;99449.17;25095;1315;3026562;-62
2022/06/29 06:16:15;;;;;;;19.70;13.50;;;;;;;26.38;55.11;99449.50;25064;1315;3054770;-63
2022/06/29 06:18:47;;;;;;;14.70;12.50;;;;;;;26.40;54.80;99452.94;25066;1315;3026426;-62
2022/06/29 06:21:15;;;;;;;20.00;12.70;;;;;;;26.48;54.68;99457.31;25052;1315;3026400;-65
2022/06/29 06:23:45;;;;;;;17.70;12.50;;;;;;;26.55;54.41;99457.85;25092;1315;3053988;-62
2022/06/29 06:26:14;;;;;;;19.30;12.70;;;;;;;26.65;54.10;99454.67;25125;1312;3026444;-62
2022/06/29 06:28:43;;;;;;;21.40;12.90;;;;;;;26.70;53.72;99457.45;25056;1315;3055282;-60
2022/06/29 06:31:12;;;;;;;18.20;12.30;;;;;;;26.74;53.71;99459.92;25080;1313;3026382;-60
2022/06/29 06:33:41;;;;;;;18.30;12.60;;;;;;;26.81;53.89;99461.44;25083;1315;3050684;-62
2022/06/29 06:36:10;;;;;;;23.60;13.30;;;;;;;26.92;53.89;99458.87;25105;1315;3026565;-61
2022/06/29 06:38:39;;;;;;;21.70;13.70;;;;;;;27.03;53.71;99461.32;25057;1315;3069828;-60
2022/06/29 06:41:27;;;;;;;25.40;14.70;;;;;;;27.08;53.93;99457.65;25115;1313;3026266;-61
2022/06/29 06:43:57;;;;;;;16.40;13.30;;;;;;;27.08;53.88;99462.64;25083;1315;3050596;-62
2022/06/29 06:46:28;;;;;;;18.60;13.10;;;;;;;27.12;53.65;99461.83;25060;1315;3026804;-62
2022/06/29 06:48:58;;;;;;;18.90;12.40;;;;;;;27.21;53.20;99458.50;25082;1315;3026732;-61
2022/06/29 06:51:27;;;;;;;22.80;11.80;;;;;;;27.33;53.06;99458.95;25084;1313;3028381;-61
2022/06/29 06:53:55;;;;;;;20.40;12.80;;;;;;;27.43;52.73;99465.02;25084;1315;3070926;-61
2022/06/29 06:56:25;;;;;;;17.00;12.30;;;;;;;27.53;52.43;99465.88;25063;1315;3026696;-62
2022/06/29 06:58:54;;;;;;;18.50;11.80;;;;;;;27.66;52.39;99463.17;25162;1315;3052523;-61
2022/06/29 07:01:23;;;;;;;20.50;12.60;;;;;;;27.76;51.76;99465.67;25087;1315;3026677;-61
2022/06/29 07:03:52;;;;;;;18.10;12.50;;;;;;;27.75;51.47;99470.20;25127;1315;3055156;-63
2022/06/29 07:06:22;;;;;;;19.80;12.00;;;;;;;27.76;51.72;99471.90;25055;1315;3026040;-63
2022/06/29 07:08:54;;;;;;;18.40;12.20;;;;;;;27.84;51.33;99471.52;25074;1313;3027274;-62
2022/06/29 07:11:25;;;;;;;21.70;11.80;;;;;;;27.96;50.98;99471.84;25062;1315;3027314;-61
2022/06/29 07:13:55;;;;;;;16.40;11.60;;;;;;;28.06;50.29;99470.39;25075;1315;3026802;-62
2022/06/29 07:16:24;;;;;;;16.10;11.30;;;;;;;28.17;50.18;99471.38;25114;1313;3029117;-63
2022/06/29 07:18:53;;;;;;;15.20;11.30;;;;;;;28.29;49.93;99466.05;25020;1315;3050850;-65
2022/06/29 07:21:22;;;;;;;14.90;11.00;;;;;;;28.41;49.61;99469.73;25066;1315;3026811;-62
2022/06/29 07:23:51;;;;;;;20.30;11.10;;;;;;;28.47;48.89;99474.35;25058;1313;3070798;-61
2022/06/29 07:26:22;;;;;;;18.10;10.70;;;;;;;28.58;48.83;99474.20;25116;1315;3026141;-63
2022/06/29 07:28:51;;;;;;;15.30;11.10;;;;;;;28.64;48.71;99472.79;25090;1313;3054610;-64
2022/06/29 07:31:20;;;;;;;20.40;10.70;;;;;;;28.72;48.46;99466.77;25115;1315;3026663;-63
2022/06/29 07:33:49;;;;;;;12.80;10.50;;;;;;;28.75;48.14;99463.55;25034;1313;3054925;-63
2022/06/29 07:36:18;;;;;;;19.90;11.00;;;;;;;28.77;47.98;99467.36;25130;1313;3026487;-62
2022/06/29 07:38:47;;;;;;;17.00;9.80;;;;;;;28.85;47.75;99461.52;25030;1315;3030059;-62
2022/06/29 07:41:16;;;;;;;18.40;10.10;;;;;;;28.97;47.21;99463.31;25090;1315;3055061;-61
2022/06/29 07:43:46;;;;;;;17.70;9.80;;;;;;;29.05;46.81;99468.81;25063;1313;3026683;-62
2022/06/29 07:46:16;;;;;;;18.50;9.80;;;;;;;29.15;46.75;99469.23;25060;1315;3051538;-63
2022/06/29 07:48:46;;;;;;;19.00;9.80;;;;;;;29.24;46.44;99471.99;25120;1315;3027233;-60
2022/06/29 07:51:15;;;;;;;13.80;9.20;;;;;;;29.34;46.33;99469.68;25043;1315;3026488;-62
2022/06/29 07:53:45;;;;;;;23.80;10.00;;;;;;;29.48;45.71;99464.19;25091;1315;3027263;-60
2022/06/29 07:56:13;;;;;;;19.50;9.40;;;;;;;29.52;45.34;99458.28;25098;1313;3026457;-61
2022/06/29 07:58:42;;;;;;;15.50;8.80;;;;;;;29.56;44.40;99456.73;25080;1314;3055459;-62
2022/06/29 08:01:12;;;;;;;14.00;9.10;;;;;;;29.59;44.64;99453.34;25112;1315;3026600;-62
2022/06/29 08:03:41;;;;;;;14.80;8.20;;;;;;;29.71;44.47;99455.80;25082;1315;3054364;-62
2022/06/29 08:06:13;;;;;;;12.60;9.00;;;;;;;29.78;43.94;99455.70;25107;1315;3028559;-61
2022/06/29 08:08:42;;;;;;;12.40;8.20;;;;;;;29.84;43.51;99449.67;25098;1315;3026886;-63
2022/06/29 08:11:11;;;;;;;11.90;7.70;;;;;;;29.94;43.39;99454.04;25079;1315;3026738;-62
2022/06/29 08:13:40;;;;;;;11.40;7.30;;;;;;;30.07;42.64;99452.00;25082;1315;3027274;-64
2022/06/29 08:16:10;;;;;;;10.30;7.90;;;;;;;30.20;42.93;99453.58;25223;1315;3070712;-64
2022/06/29 08:18:41;;;;;;;11.60;7.30;;;;;;;30.25;41.91;99450.91;25214;1315;3029404;-64
2022/06/29 08:21:10;;;;;;;10.90;6.90;;;;;;;30.37;40.82;99449.48;25124;1315;3027268;-62
2022/06/29 08:23:40;;;;;;;12.30;7.60;;;;;;;30.43;40.47;99448.15;25149;1315;3027133;-62
2022/06/29 08:26:09;;;;;;;17.20;7.50;;;;;;;30.47;40.87;99452.20;25027;1315;3026862;-62
2022/06/29 08:28:38;;;;;;;13.50;6.80;;;;;;;30.57;40.53;99450.29;25116;1314;3054205;-64
2022/06/29 08:31:07;;;;;;;10.20;7.00;;;;;;;30.66;39.87;99447.52;25028;1315;3026831;-64
2022/06/29 08:33:36;;;;;;;13.50;6.70;;;;;;;30.69;40.03;99450.73;25116;1315;3052706;-65
2022/06/29 08:36:07;;;;;;;8.50;6.40;;;;;;;30.73;38.84;99444.21;25097;1315;3026939;-61
2022/06/29 08:38:37;;;;;;;9.10;5.50;;;;;;;30.83;37.39;99442.44;25094;1315;3027886;-62
2022/06/29 08:41:06;;;;;;;9.80;6.10;;;;;;;30.93;37.17;99442.66;25074;1314;3026926;-63
2022/06/29 08:43:35;;;;;;;12.10;5.80;;;;;;;31.07;36.89;99446.30;25029;1315;3054099;-63
2022/06/29 08:46:04;;;;;;;7.70;5.80;;;;;;;31.20;36.25;99442.05;25054;1314;3026019;-64
2022/06/29 08:48:33;;;;;;;10.90;6.00;;;;;;;31.32;36.05;99442.17;25081;1315;3050412;-62
2022/06/29 08:51:02;;;;;;;9.80;6.10;;;;;;;31.36;36.14;99442.63;25092;1315;3028180;-64
2022/06/29 08:53:32;;;;;;;14.80;6.50;;;;;;;31.45;36.38;99441.13;25118;1315;3070701;-65
2022/06/29 08:56:01;;;;;;;13.70;5.90;;;;;;;31.52;35.21;99441.95;25076;1315;3026599;-64
2022/06/29 08:58:30;;;;;;;11.70;5.70;;;;;;;31.60;35.22;99441.59;25104;1315;3026687;-64
2022/06/29 09:00:59;;;;;;;9.60;6.10;;;;;;;31.69;35.46;99444.39;25082;1315;3070574;-64
2022/06/29 09:03:28;;;;;;;9.10;5.40;;;;;;;31.77;35.69;99440.95;25059;1318;3027048;-63
2022/06/29 09:05:57;;;;;;;9.40;5.80;;;;;;;31.83;35.12;99445.48;25067;1315;3055093;-64
2022/06/29 09:08:26;;;;;;;7.20;5.60;;;;;;;31.86;35.16;99447.96;25078;1315;3026597;-65
2022/06/29 09:10:55;;;;;;;9.20;5.70;;;;;;;31.87;34.99;99448.58;25084;1315;3055169;-66
2022/06/29 09:13:24;;;;;;;9.60;6.10;;;;;;;31.89;34.84;99451.18;25068;1315;3026576;-63
2022/06/29 09:15:57;;;;;;;10.80;5.60;;;;;;;32.01;34.57;99448.31;25080;1312;3048810;-63
2022/06/29 09:18:34;;;;;;;9.90;5.30;;;;;;;32.11;34.22;99448.56;25124;1315;3027636;-64
2022/06/29 09:21:05;;;;;;;10.50;6.10;;;;;;;32.27;34.03;99447.65;25037;1315;3051656;-64
2022/06/29 09:23:35;;;;;;;9.30;5.40;;;;;;;32.33;33.73;99446.86;25149;1315;3026981;-64
2022/06/29 09:26:03;;;;;;;9.50;5.70;;;;;;;32.37;33.65;99443.04;25075;1315;3026568;-64
2022/06/29 09:28:33;;;;;;;7.80;5.50;;;;;;;32.39;33.59;99435.69;25032;1315;3053450;-65
2022/06/29 09:31:02;;;;;;;10.90;5.50;;;;;;;32.50;33.45;99433.64;25082;1315;3030236;-62
2022/06/29 09:33:32;;;;;;;8.00;5.40;;;;;;;32.58;33.40;99433.02;25071;1315;3026439;-64
2022/06/29 09:36:07;;;;;;;14.50;5.80;;;;;;;32.55;33.20;99428.60;25053;1313;3055372;-62
2022/06/29 09:38:37;;;;;;;12.70;5.80;;;;;;;32.79;32.21;99424.02;25061;1315;3027702;-62
2022/06/29 09:41:15;;;;;;;11.70;5.40;;;;;;;32.93;32.13;99421.97;25053;1315;3026387;-65
2022/06/29 09:43:45;;;;;;;9.40;5.10;;;;;;;33.07;31.45;99418.96;25093;1314;3052317;-64
2022/06/29 09:46:15;;;;;;;8.20;5.30;;;;;;;33.11;31.37;99425.52;25030;1313;3027663;-62
2022/06/29 09:48:44;;;;;;;8.80;5.10;;;;;;;33.26;30.48;99423.96;25100;1315;3026448;-67
2022/06/29 09:51:32;;;;;;;7.60;5.40;;;;;;;33.33;30.16;99421.27;25165;1313;3026924;-68
2022/06/29 09:54:06;;;;;;;7.20;5.00;;;;;;;33.36;30.56;99420.41;25055;1315;3054899;-64
2022/06/29 09:56:40;;;;;;;16.80;5.60;;;;;;;33.37;30.47;99420.59;25099;1315;3057079;-66
2022/06/29 09:59:09;;;;;;;6.10;4.90;;;;;;;33.42;30.29;99412.73;25199;1315;3028099;-68
2022/06/29 10:04:27;;;;;;;11.70;7.40;;;;;;;33.48;30.04;99418.88;25095;1315;3054191;-66
2022/06/29 10:06:56;;;;;;;8.00;5.90;;;;;;;33.61;29.50;99419.70;25053;1315;3026429;-63
2022/06/29 10:09:25;;;;;;;8.20;6.30;;;;;;;33.75;29.45;99417.00;25178;1315;3055508;-64
2022/06/29 10:15:20;;;;;;;10.20;6.10;;;;;;;33.78;29.50;99421.91;24981;1314;3051968;-64
2022/06/29 10:17:58;;;;;;;12.30;5.70;;;;;;;33.87;29.57;99423.80;25071;1315;3052961;-65
2022/06/29 10:20:42;;;;;;;9.80;7.80;;;;;;;33.91;29.97;99424.58;25130;1315;3054043;-64
2022/06/29 10:23:46;;;;;;;7.70;5.90;;;;;;;33.96;30.09;99424.57;25028;1315;3071639;-62
2022/06/29 10:26:28;;;;;;;16.40;5.70;;;;;;;34.03;29.93;99427.16;25023;1314;3051616;-62
2022/06/29 10:29:09;;;;;;;10.70;6.10;;;;;;;34.13;30.00;99425.73;25015;1315;3055296;-64
2022/06/29 10:31:50;;;;;;;8.10;5.30;;;;;;;34.09;30.07;99429.48;25108;1315;3055225;-63
2022/06/29 10:34:32;;;;;;;9.70;5.80;;;;;;;34.11;30.21;99426.73;25063;1315;3058712;-60
2022/06/29 10:37:14;;;;;;;8.20;5.20;;;;;;;34.28;29.78;99427.44;25050;1315;3052479;-64
2022/06/29 10:39:48;;;;;;;6.60;4.90;;;;;;;34.48;29.65;99423.21;25080;1315;3053272;-62
2022/06/29 10:45:18;;;;;;;10.90;6.10;;;;;;;34.45;29.54;99424.70;25025;1315;3071471;-63
2022/06/29 10:47:53;;;;;;;9.30;5.30;;;;;;;34.52;29.61;99428.71;25049;1315;3047940;-61
2022/06/29 10:50:23;;;;;;;8.60;5.10;;;;;;;34.78;28.85;99418.84;24659;1315;3640007;-62
2022/06/29 10:52:56;;;;;;;6.90;5.90;;;;;;;34.80;28.78;99421.55;25107;1314;3026676;-63
2022/06/29 10:55:29;;;;;;;6.60;5.10;;;;;;;34.80;29.23;99423.61;25051;1315;3026959;-62
2022/06/29 10:57:58;;;;;;;;;;;;;;;34.80;29.36;99421.21;25060;1314;3027311;-62
2022/06/29 11:00:30;;;;;;;10.40;5.30;;;;;;;34.75;29.29;99427.05;25079;1315;3027087;-63
2022/06/29 11:03:18;;;;;;;8.00;5.60;;;;;;;34.58;29.45;99432.02;25059;1313;3057639;-62
2022/06/29 11:17:39;;;;;;;7.90;5.10;;;;;;;35.18;28.57;99417.47;25073;1313;3052108;-68
2022/06/29 11:19:54;;;;;;;10.00;5.10;;;;;;;35.22;28.96;99413.73;25143;1315;3055307;-62
2022/06/29 11:22:23;;;;;;;7.50;5.50;;;;;;;35.27;29.21;99410.56;24997;1315;3026476;-60
2022/06/29 11:24:54;;;;;;;12.00;5.40;;;;;;;35.36;29.00;99416.61;25136;1315;3048094;-63
2022/06/29 11:27:35;;;;;;;9.00;5.40;;;;;;;35.44;28.01;99417.53;25134;1315;3026349;-61
2022/06/29 11:30:11;;;;;;;6.10;4.90;;;;;;;35.51;27.84;99411.48;25124;1315;3055343;-62
2022/06/29 11:32:44;;;;;;;11.40;5.40;;;;;;;35.51;27.70;99408.36;25114;1315;3058816;-61
2022/06/29 11:35:15;;;;;;;6.80;5.30;;;;;;;35.55;28.23;99398.95;25049;1315;3029739;-63
2022/06/29 11:37:51;;;;;;;8.60;5.10;;;;;;;35.51;28.41;99393.50;25491;1315;3026763;-64
2022/06/29 11:40:41;;;;;;;11.80;5.60;;;;;;;35.60;27.89;99395.92;25147;1315;3050669;-61
2022/06/29 11:43:12;;;;;;;14.30;5.60;;;;;;;35.53;27.77;99392.09;25038;1315;3070913;-63
2022/06/29 11:45:51;;;;;;;14.10;5.00;;;;;;;35.58;27.87;99387.29;25061;1312;3026491;-61
2022/06/29 11:48:22;;;;;;;10.70;5.40;;;;;;;35.69;27.96;99388.62;25162;1315;3053043;-63
2022/06/29 11:50:52;;;;;;;5.30;4.80;;;;;;;35.72;27.72;99389.52;25048;1315;3026225;-62